François Lagadeuc

François Lagadeuc

Statistiques 2026

  • Courses courues : 312
  • Nb de victoires : 46
  • Nb de places : 86
  • Écart gagnant : 6
  • Réussite à la gagne : 15%
  • Réussite à la place : 28%
Musique : 0m 0a 0a 3a 2a 8a 1a 8a 1a 5m Da 8a Da 4a 6a Da 2a 0a
DateRangCatégorieAlloc.Dist.HippodromeChevalRed. KmSpé.
17/06/22 1 Trot 46 000€ 2 875m Vincennes Gold Voice 1'13"6 Attelé
18/06/22 1 Trot 57 000€ 2 875m Enghien Soisy Feu de Revolte 1'13"2 Attelé lire

Très vite en bonne position, a su se montrer facilement le plus fort pour finir.

19/06/22 1 Trot 17 000€ 2 650m Cherbourg Islande de l'Iton 1'18"8 Attelé
19/06/22 1 Trot 22 000€ 2 650m Cherbourg Hoche 1'16"7 Attelé
20/06/22 1 Trot 20 000€ 2 450m Caen Iloviroiz Di Leone 1'14"5 Monté
21/06/22 1 Trot 29 000€ 2 575m Agen Fly To The Moon 1'13"2 Attelé
24/06/22 1 Trot 44 000€ 2 700m Vincennes Illawara 1'13"6 Attelé
24/06/22 1 Trot 44 000€ 2 850m Vincennes Benz As 1'13"8 Attelé
10/12/19 2 Trot 50 000€ 2 700m Vincennes Eire d'helios 1'14"4 Attelé lire

Après avoir évolué en queue de peloton,a très bien conclu pour arracher la deuxième place.

22/12/19 2 Trot 49 000€ 2 100m Vincennes Cesar Express 1'13"3 Attelé lire

Après avoir figuré en retrait, a bien conclu mais sans pouvoir remonter le lauréat.

26/12/19 2 Trot 33 000€ 2 850m Vincennes Eclair de Duffel 1'13"3 Monté lire

Principal animateur, n'a pu résister au lauréat pour finir.

29/12/19 2 Trot 49 000€ 2 100m Vincennes Cesar Express 1'12"6 Attelé lire

Longtemps dans la dernière partie du peloton, a terminé de belle manière.

07/01/20 2 Trot 37 000€ 2 700m Vincennes Emone Cruz 1'14"8 Attelé lire

Longtemps au sein du peloton, a bien conclu sans pouvoir remonter la lauréate.

10/01/20 2 Trot 36 000€ 2 700m Vincennes Hispanien 1'17"6 Monté lire

Après avoir figuré, a progressé dans le tournant final avant de bien terminer.

18/01/20 2 Trot 43 000€ 2 700m Vincennes Enzo d'Essarts 1'13"7 Attelé lire

Attentiste à mi peloton, a progressé en montant puis a bien conclu.

23/01/20 2 Trot 18 000€ 2 100m Vincennes Ara d'Ostal 1'15"4 Attelé lire

Après avoir figuré, a vainement attaqué le lauréat dans la phase finale.

28/01/20 2 Trot 43 000€ 2 850m Vincennes Emone Cruz 1'14"1 Attelé lire

Longtemps en retrait, a progressé dans la montée, se défendant très bien jusqu'au bout.

01/02/20 2 Trot 18 000€ 2 850m Mauquenchy Flash de Bucy 1'17"1 Attelé
01/02/20 2 Trot 15 000€ 2 850m Mauquenchy Heagle Cash 1'19"1 Attelé
13/02/20 2 Trot 67 000€ 2 700m Vincennes Dostoievski 1'13"5 Attelé lire

Très vite à la pointe du combat, a fort bien tenu sa partie jusqu'au bout.

14/02/20 2 Trot 19 000€ 2 700m Graignes Ecu d'And Attelé
05/03/20 2 Trot 23 000€ 2 875m Laval Elixir Wind 1'16"2 Attelé
08/03/20 2 Trot 15 000€ 2 700m Graignes Gazelle Danica 1'15"1 Attelé
08/03/20 2 Trot 15 000€ 2 700m Graignes Gloria de Centule 1'17"6 Monté
08/03/20 2 Trot 15 000€ 2 700m Graignes Horace d'Arthenay 1'19"8 Attelé
12/05/20 2 Trot 16 000€ 2 550m Cherbourg Favela Somolli 1'16"5 Attelé
24/05/20 2 Trot 16 000€ 2 700m Le Mont Saint Michel Force Vive 1'14"6 Monté
25/05/20 2 Trot 16 000€ 2 150m Mauquenchy Gazelle Danica 1'14"5 Attelé
25/05/20 2 Trot 18 000€ 2 150m Mauquenchy Fadette d'Aurcy 1'13"4 Attelé
28/05/20 2 Trot 13 000€ 2 700m Graignes Genie du Pin 1'16"7 Attelé
02/06/20 2 Trot 37 000€ 2 875m Laval Hydre 1'17"1 Monté
07/06/20 2 Trot 14 000€ 2 875m Argentan Gold du Choquel 1'16"8 Monté
08/06/20 2 Trot 23 000€ 2 200m Caen Emone Cruz 1'13"0 Attelé
13/06/20 2 Trot 12 000€ 2 700m Graignes Gaetane du Vivier 1'16"3 Attelé
17/06/20 2 Trot 23 000€ 2 850m Maure De Bretagne Carat du Bocage 1'15"8 Attelé
19/06/20 2 Trot 37 000€ 2 150m Mauquenchy Emone Cruz 1'14"1 Attelé
21/06/20 2 Trot 12 000€ 2 975m Le Mans Hippo de Beaum 1'18"1 Attelé
21/06/20 2 Trot 15 000€ 2 975m Le Mans Emir du Tresor 1'15"5 Monté
21/06/20 2 Trot 25 000€ 2 975m Le Mans Eleganza Fac 1'15"2 Attelé
26/06/20 2 Trot 18 000€ 2 675m Le Mont Saint Michel Foxy Lady Yankee 1'18"4 Attelé
28/06/20 2 Trot 14 000€ 2 775m Ecommoy Guili Guili Attelé
01/07/20 2 Trot 14 000€ 2 725m Lisieux Grande Campo 1'17"2 Attelé
04/07/20 2 Trot 42 000€ 2 150m Enghien Soisy Concerto Gede 1'12"8 Attelé
05/07/20 2 Trot 11 000€ 2 225m Moulins La Marche Heaven Margaux Attelé
09/07/20 2 Trot 13 000€ 2 950m Saint Malo Hibiscus de Maisy 1'20"1 Attelé
10/07/20 2 Trot 17 000€ 2 750m Cabourg Galehaut America 1'16"2 Attelé
12/07/20 2 Trot 17 000€ 2 600m Genets Donatella Terrie Monté
13/07/20 2 Trot 14 000€ 2 625m Cherbourg Geronimo Quick 1'17"0 Monté
14/07/20 2 Trot 12 000€ 2 200m Agon Coutainville Hamlet de l'Iton Attelé
16/07/20 2 Trot 12 000€ 2 700m Graignes Harlem de l'Iton 1'16"8 Attelé